createdAt,value
2018-10-02T00:00:07.124Z,8.80
2018-10-02T00:00:41.818Z,8.70
2018-10-02T00:01:16.507Z,8.70
2018-10-02T00:01:50.824Z,8.70
2018-10-02T00:02:25.070Z,8.70
2018-10-02T00:02:59.281Z,8.80
2018-10-02T00:03:33.088Z,8.80
2018-10-02T00:04:08.010Z,8.80
2018-10-02T00:04:43.030Z,8.80
2018-10-02T00:05:17.287Z,8.80
2018-10-02T00:05:51.421Z,8.80
2018-10-02T00:06:25.912Z,8.80
2018-10-02T00:06:59.789Z,8.80
2018-10-02T00:07:33.881Z,8.80
2018-10-02T00:08:08.072Z,8.80
2018-10-02T00:08:42.554Z,8.80
2018-10-02T00:09:17.377Z,8.80
2018-10-02T00:09:51.267Z,8.80
2018-10-02T00:10:25.449Z,8.80
2018-10-02T00:11:05.325Z,8.80
2018-10-02T00:11:44.816Z,8.80
2018-10-02T00:12:24.406Z,8.80
2018-10-02T00:13:03.993Z,8.70
2018-10-02T00:13:43.534Z,8.80
2018-10-02T00:14:23.631Z,8.80
2018-10-02T00:14:57.493Z,8.80
2018-10-02T00:15:31.358Z,8.80
2018-10-02T00:16:05.504Z,8.80
2018-10-02T00:16:39.682Z,8.80
2018-10-02T00:17:14.164Z,8.80
2018-10-02T00:17:49.084Z,8.80
2018-10-02T00:18:22.957Z,8.80
2018-10-02T00:18:57.008Z,8.80
2018-10-02T00:19:30.865Z,8.80
2018-10-02T00:20:05.105Z,8.80
2018-10-02T00:20:39.109Z,8.70
2018-10-02T00:21:13.722Z,8.70
2018-10-02T00:21:47.723Z,8.80
2018-10-02T00:22:21.741Z,8.80
2018-10-02T00:22:55.733Z,8.70
2018-10-02T00:23:29.743Z,8.70
2018-10-02T00:24:03.552Z,8.70
2018-10-02T00:24:37.304Z,8.70
2018-10-02T00:25:11.178Z,8.70
2018-10-02T00:25:45.394Z,8.70
2018-10-02T00:26:19.458Z,8.70
2018-10-02T00:26:53.480Z,8.70
2018-10-02T00:27:27.385Z,8.70
2018-10-02T00:28:01.472Z,8.70
2018-10-02T00:28:35.423Z,8.70
2018-10-02T00:29:09.301Z,8.70
2018-10-02T00:29:44.336Z,8.60
2018-10-02T00:30:18.693Z,8.60
2018-10-02T00:30:52.765Z,8.70
2018-10-02T00:31:26.807Z,8.70
2018-10-02T00:32:00.985Z,8.70
2018-10-02T00:32:34.653Z,8.70
2018-10-02T00:33:08.612Z,8.70
2018-10-02T00:33:42.453Z,8.70
2018-10-02T00:34:16.751Z,8.70
2018-10-02T00:34:51.143Z,8.70
2018-10-02T00:35:25.206Z,8.70
2018-10-02T00:35:59.088Z,8.70
2018-10-02T00:36:33.083Z,8.80
2018-10-02T00:37:07.086Z,8.80
2018-10-02T00:37:41.051Z,8.80
2018-10-02T00:38:15.245Z,8.80
2018-10-02T00:38:49.150Z,8.80
2018-10-02T00:39:23.277Z,8.80
2018-10-02T00:39:57.168Z,8.80
2018-10-02T00:40:31.039Z,8.80
2018-10-02T00:41:04.987Z,8.80
2018-10-02T00:41:38.903Z,8.70
2018-10-02T00:42:12.884Z,8.80
2018-10-02T00:42:47.118Z,8.80
2018-10-02T00:43:21.359Z,8.80
2018-10-02T00:43:55.109Z,8.80
2018-10-02T00:44:29.028Z,8.70
2018-10-02T00:45:02.997Z,8.70
2018-10-02T00:45:37.010Z,8.60
2018-10-02T00:46:10.860Z,8.60
2018-10-02T00:46:44.823Z,8.60
2018-10-02T00:47:19.125Z,8.60
2018-10-02T00:47:52.880Z,8.60
2018-10-02T00:48:26.931Z,8.50
2018-10-02T00:49:00.975Z,8.60
2018-10-02T00:49:35.228Z,8.50
2018-10-02T00:50:09.079Z,8.60
2018-10-02T00:50:43.031Z,8.60
2018-10-02T00:51:17.390Z,8.60
2018-10-02T00:51:51.822Z,8.60
2018-10-02T00:52:25.734Z,8.60
2018-10-02T00:52:59.506Z,8.60
2018-10-02T00:53:33.430Z,8.70
2018-10-02T00:54:07.581Z,8.70
2018-10-02T00:54:41.355Z,8.70
2018-10-02T00:55:15.520Z,8.70
2018-10-02T00:55:49.588Z,8.70
2018-10-02T00:56:23.489Z,8.70
2018-10-02T00:56:57.400Z,8.70
2018-10-02T00:57:31.596Z,8.70
2018-10-02T00:58:05.402Z,8.60
2018-10-02T00:58:39.323Z,8.60
2018-10-02T00:59:13.241Z,8.60
2018-10-02T00:59:47.380Z,8.60
2018-10-02T01:00:21.570Z,8.70
2018-10-02T01:00:55.986Z,8.70
2018-10-02T01:01:29.871Z,8.60
2018-10-02T01:02:03.627Z,8.60
2018-10-02T01:02:37.395Z,8.60
2018-10-02T01:03:11.216Z,8.70
2018-10-02T01:03:44.951Z,8.70
2018-10-02T01:04:19.303Z,8.70
2018-10-02T01:04:53.186Z,8.60
2018-10-02T01:05:27.609Z,8.70
2018-10-02T01:06:01.605Z,8.60
2018-10-02T01:06:35.356Z,8.70
2018-10-02T01:07:09.344Z,8.60
2018-10-02T01:07:43.684Z,8.60
2018-10-02T01:08:17.636Z,8.60
2018-10-02T01:08:52.045Z,8.60
2018-10-02T01:09:26.203Z,8.60
2018-10-02T01:10:00.040Z,8.60
2018-10-02T01:10:33.834Z,8.60
2018-10-02T01:11:07.983Z,8.60
2018-10-02T01:11:42.699Z,8.60
2018-10-02T01:12:16.800Z,8.60
2018-10-02T01:12:50.536Z,8.60
2018-10-02T01:13:24.424Z,8.60
2018-10-02T01:13:58.127Z,8.60
2018-10-02T01:14:31.910Z,8.50
2018-10-02T01:15:05.854Z,8.50
2018-10-02T01:15:39.712Z,8.50
2018-10-02T01:16:13.610Z,8.50
2018-10-02T01:16:47.340Z,8.50
2018-10-02T01:17:21.667Z,8.50
2018-10-02T01:17:55.904Z,8.50
2018-10-02T01:18:29.632Z,8.50
2018-10-02T01:19:04.016Z,8.60
2018-10-02T01:19:37.983Z,8.60
2018-10-02T01:20:12.184Z,8.60
2018-10-02T01:20:46.061Z,8.60
2018-10-02T01:21:20.177Z,8.70
2018-10-02T01:21:54.653Z,8.60
2018-10-02T01:22:28.789Z,8.60
2018-10-02T01:23:02.992Z,8.50
2018-10-02T01:23:37.185Z,8.60
2018-10-02T01:24:11.268Z,8.60
2018-10-02T01:24:44.996Z,8.50
2018-10-02T01:25:19.197Z,8.50
2018-10-02T01:25:53.590Z,8.50
2018-10-02T01:26:27.807Z,8.50
2018-10-02T01:27:01.815Z,8.50
2018-10-02T01:27:36.089Z,8.50
2018-10-02T01:28:09.992Z,8.50
2018-10-02T01:28:44.180Z,8.50
2018-10-02T01:29:18.298Z,8.50
2018-10-02T01:29:52.045Z,8.50
2018-10-02T01:30:26.490Z,8.50
2018-10-02T01:31:00.292Z,8.50
2018-10-02T01:31:34.280Z,8.50
2018-10-02T01:32:08.284Z,8.50
2018-10-02T01:32:42.270Z,8.50
2018-10-02T01:33:16.337Z,8.50
2018-10-02T01:33:50.316Z,8.50
2018-10-02T01:34:25.835Z,8.50
2018-10-02T01:35:00.528Z,8.50
2018-10-02T01:35:34.299Z,8.60
2018-10-02T01:36:09.180Z,8.50
2018-10-02T01:36:43.111Z,8.50
2018-10-02T01:37:17.071Z,8.50
2018-10-02T01:37:51.071Z,8.50
2018-10-02T01:38:25.396Z,8.50
2018-10-02T01:39:00.053Z,8.50
2018-10-02T01:39:34.028Z,8.50
2018-10-02T01:40:07.975Z,8.50
2018-10-02T01:40:42.018Z,8.50
2018-10-02T01:41:15.987Z,8.60
2018-10-02T01:41:50.183Z,8.60
2018-10-02T01:42:25.200Z,8.60
2018-10-02T01:42:59.447Z,8.60
2018-10-02T01:43:33.648Z,8.60
2018-10-02T01:44:07.742Z,8.60
2018-10-02T01:44:41.835Z,8.60
2018-10-02T01:45:15.936Z,8.60
2018-10-02T01:45:49.931Z,8.60
2018-10-02T01:46:23.839Z,8.60
2018-10-02T01:46:58.043Z,8.60
2018-10-02T01:47:32.097Z,8.60
2018-10-02T01:48:06.027Z,8.60
2018-10-02T01:48:40.106Z,8.60
2018-10-02T01:49:16.529Z,8.60
2018-10-02T01:49:50.465Z,8.60
2018-10-02T01:50:24.367Z,8.60
2018-10-02T01:50:59.052Z,8.60
2018-10-02T01:51:33.114Z,8.60
2018-10-02T01:52:06.977Z,8.60
2018-10-02T01:52:41.182Z,8.60
2018-10-02T01:53:15.255Z,8.60
2018-10-02T01:53:49.070Z,8.60
2018-10-02T01:54:22.977Z,8.60
2018-10-02T01:54:56.868Z,8.60
2018-10-02T01:55:30.963Z,8.60
2018-10-02T01:56:04.707Z,8.60
2018-10-02T01:56:38.852Z,8.60
2018-10-02T01:57:12.621Z,8.60
2018-10-02T01:57:47.203Z,8.60
2018-10-02T01:58:21.058Z,8.60
2018-10-02T01:58:55.079Z,8.60
2018-10-02T01:59:29.034Z,8.60
2018-10-02T02:00:03.509Z,8.60
2018-10-02T02:00:37.299Z,8.60
2018-10-02T02:01:11.054Z,8.60
2018-10-02T02:01:45.102Z,8.60
2018-10-02T02:02:18.860Z,8.60
2018-10-02T02:02:52.583Z,8.60
2018-10-02T02:03:26.554Z,8.60
2018-10-02T02:04:00.490Z,8.60
2018-10-02T02:04:34.502Z,8.60
2018-10-02T02:05:08.827Z,8.60
2018-10-02T02:05:42.704Z,8.60
2018-10-02T02:06:16.651Z,8.60
2018-10-02T02:06:50.532Z,8.60
2018-10-02T02:07:24.828Z,8.60
2018-10-02T02:07:58.751Z,8.60
2018-10-02T02:08:32.676Z,8.60
2018-10-02T02:09:07.257Z,8.60
2018-10-02T02:09:41.074Z,8.70
2018-10-02T02:10:14.944Z,8.70
2018-10-02T02:10:48.872Z,8.70
2018-10-02T02:11:22.905Z,8.70
2018-10-02T02:11:56.987Z,8.70
2018-10-02T02:12:31.075Z,8.70
2018-10-02T02:13:04.939Z,8.70
2018-10-02T02:13:38.894Z,8.70
2018-10-02T02:14:12.816Z,8.70
2018-10-02T02:14:46.677Z,8.70
2018-10-02T02:15:20.631Z,8.70
2018-10-02T02:15:54.563Z,8.70
2018-10-02T02:16:28.633Z,8.70
2018-10-02T02:17:02.495Z,8.70
2018-10-02T02:17:36.445Z,8.60
2018-10-02T02:18:10.801Z,8.60
2018-10-02T02:18:44.906Z,8.60
2018-10-02T02:19:18.711Z,8.60
2018-10-02T02:19:52.669Z,8.70
2018-10-02T02:20:26.938Z,8.60
2018-10-02T02:21:01.043Z,8.60
2018-10-02T02:21:34.993Z,8.60
2018-10-02T02:22:08.979Z,8.60
2018-10-02T02:22:42.978Z,8.60
2018-10-02T02:23:16.969Z,8.70
2018-10-02T02:23:50.971Z,8.70
2018-10-02T02:24:24.970Z,8.70
2018-10-02T02:24:58.827Z,8.70
2018-10-02T02:25:32.836Z,8.70
2018-10-02T02:26:07.096Z,8.70
2018-10-02T02:26:41.151Z,8.70
2018-10-02T02:27:15.158Z,8.70
2018-10-02T02:27:49.024Z,8.70
2018-10-02T02:28:22.970Z,8.70
2018-10-02T02:28:56.830Z,8.70
2018-10-02T02:29:30.965Z,8.70
2018-10-02T02:30:05.448Z,8.70
2018-10-02T02:30:39.368Z,8.60
2018-10-02T02:31:13.298Z,8.60
2018-10-02T02:31:47.350Z,8.60
2018-10-02T02:32:21.437Z,8.60
2018-10-02T02:32:55.288Z,8.60
2018-10-02T02:33:29.315Z,8.60
2018-10-02T02:34:03.816Z,8.60
2018-10-02T02:34:38.024Z,8.50
2018-10-02T02:35:12.258Z,8.50
2018-10-02T02:35:46.449Z,8.50
2018-10-02T02:36:20.831Z,8.50
2018-10-02T02:36:54.770Z,8.50
2018-10-02T02:37:28.522Z,8.50
2018-10-02T02:38:02.360Z,8.50
2018-10-02T02:38:36.385Z,8.50
2018-10-02T02:39:10.256Z,8.50
2018-10-02T02:39:44.072Z,8.50
2018-10-02T02:40:17.864Z,8.50
2018-10-02T02:40:51.699Z,8.50
2018-10-02T02:41:25.633Z,8.50
2018-10-02T02:41:59.470Z,8.50
2018-10-02T02:42:33.554Z,8.50
2018-10-02T02:43:07.679Z,8.50
2018-10-02T02:43:41.923Z,8.50
2018-10-02T02:44:15.825Z,8.50
2018-10-02T02:44:49.691Z,8.50
2018-10-02T02:45:23.483Z,8.50
2018-10-02T02:45:57.367Z,8.50
2018-10-02T02:46:31.214Z,8.50
2018-10-02T02:47:10.703Z,8.50
2018-10-02T02:47:50.257Z,8.50
2018-10-02T02:48:29.741Z,8.50
2018-10-02T02:49:09.378Z,8.50
2018-10-02T02:49:49.474Z,8.60
2018-10-02T02:50:29.147Z,8.60
2018-10-02T02:51:08.667Z,8.60
2018-10-02T02:51:43.210Z,8.60
2018-10-02T02:52:19.565Z,8.60
2018-10-02T02:52:56.543Z,8.60
2018-10-02T02:53:30.994Z,8.60
2018-10-02T02:54:05.090Z,8.60
2018-10-02T02:54:39.646Z,8.60
2018-10-02T02:55:13.841Z,8.60
2018-10-02T02:55:47.704Z,8.60
2018-10-02T02:56:21.720Z,8.70
2018-10-02T02:56:55.592Z,8.60
2018-10-02T02:57:29.539Z,8.70
2018-10-02T02:58:03.489Z,8.70
2018-10-02T02:58:37.333Z,8.70
2018-10-02T02:59:11.481Z,8.70
2018-10-02T02:59:45.698Z,8.60
2018-10-02T03:00:20.007Z,8.60
2018-10-02T03:00:53.852Z,8.70
2018-10-02T03:01:28.621Z,8.70
2018-10-02T03:02:02.507Z,8.70
2018-10-02T03:02:36.590Z,8.70
2018-10-02T03:03:11.102Z,8.70
2018-10-02T03:03:45.561Z,8.70
2018-10-02T03:04:19.503Z,8.70
2018-10-02T03:04:53.493Z,8.70
2018-10-02T03:05:27.430Z,8.60
2018-10-02T03:06:01.272Z,8.70
2018-10-02T03:06:35.154Z,8.70
2018-10-02T03:07:09.417Z,8.60
2018-10-02T03:07:45.065Z,8.70
2018-10-02T03:08:19.156Z,8.70
2018-10-02T03:08:53.791Z,8.70
2018-10-02T03:09:27.675Z,8.70
2018-10-02T03:10:01.841Z,8.60
2018-10-02T03:10:36.098Z,8.60
2018-10-02T03:11:10.910Z,8.70
2018-10-02T03:11:45.668Z,8.60
2018-10-02T03:12:19.844Z,8.60
2018-10-02T03:12:54.009Z,8.60
2018-10-02T03:13:27.930Z,8.60
2018-10-02T03:14:02.333Z,8.60
2018-10-02T03:14:36.549Z,8.60
2018-10-02T03:15:10.747Z,8.70
2018-10-02T03:15:44.865Z,8.60
2018-10-02T03:16:18.895Z,8.60
2018-10-02T03:16:53.246Z,8.60
2018-10-02T03:17:27.308Z,8.60
2018-10-02T03:18:01.663Z,8.60
2018-10-02T03:18:35.658Z,8.70
2018-10-02T03:19:09.652Z,8.70
2018-10-02T03:19:44.081Z,8.70
2018-10-02T03:20:19.545Z,8.70
2018-10-02T03:20:53.460Z,8.70
2018-10-02T03:21:27.482Z,8.70
2018-10-02T03:22:01.289Z,8.70
2018-10-02T03:22:35.341Z,8.70
2018-10-02T03:23:09.531Z,8.70
2018-10-02T03:23:45.384Z,8.60
2018-10-02T03:24:19.783Z,8.70
2018-10-02T03:24:53.706Z,8.70
2018-10-02T03:25:27.585Z,8.70
2018-10-02T03:26:01.748Z,8.60
2018-10-02T03:26:35.461Z,8.60
2018-10-02T03:27:09.441Z,8.70
2018-10-02T03:27:43.453Z,8.70
2018-10-02T03:28:17.272Z,8.70
2018-10-02T03:28:51.513Z,8.70
2018-10-02T03:29:25.559Z,8.70
2018-10-02T03:29:59.473Z,8.70
2018-10-02T03:30:33.555Z,8.70
2018-10-02T03:31:08.297Z,8.70
2018-10-02T03:31:42.252Z,8.70
2018-10-02T03:32:16.922Z,8.70
2018-10-02T03:32:51.655Z,8.70
2018-10-02T03:33:25.466Z,8.70
2018-10-02T03:33:59.263Z,8.70
2018-10-02T03:34:33.163Z,8.70
2018-10-02T03:35:06.960Z,8.70
2018-10-02T03:35:40.682Z,8.80
2018-10-02T03:36:15.466Z,8.80
2018-10-02T03:36:49.894Z,8.70
2018-10-02T03:37:23.833Z,8.70
2018-10-02T03:37:57.909Z,8.80
2018-10-02T03:38:31.856Z,8.80
2018-10-02T03:39:07.741Z,8.70
2018-10-02T03:39:41.552Z,8.80
2018-10-02T03:40:15.510Z,8.80
2018-10-02T03:40:49.658Z,8.80
2018-10-02T03:41:24.175Z,8.80
2018-10-02T03:41:58.013Z,8.80
2018-10-02T03:42:32.206Z,8.80
2018-10-02T03:43:06.229Z,8.80
2018-10-02T03:43:40.143Z,8.80
2018-10-02T03:44:14.559Z,8.80
2018-10-02T03:44:48.595Z,8.80
2018-10-02T03:45:22.827Z,8.80
2018-10-02T03:45:56.747Z,8.70
2018-10-02T03:46:31.108Z,8.70
2018-10-02T03:47:05.575Z,8.80
2018-10-02T03:47:39.580Z,8.80
2018-10-02T03:48:13.548Z,8.80
2018-10-02T03:48:47.437Z,8.80
2018-10-02T03:49:22.109Z,8.80
2018-10-02T03:49:55.840Z,8.80
2018-10-02T03:50:29.865Z,8.80
2018-10-02T03:51:03.862Z,8.80
2018-10-02T03:51:37.820Z,8.80
2018-10-02T03:52:11.804Z,8.80
2018-10-02T03:52:45.963Z,8.80
2018-10-02T03:53:20.079Z,8.80
2018-10-02T03:53:53.876Z,8.80
2018-10-02T03:54:28.319Z,8.80
2018-10-02T03:55:02.160Z,8.80
2018-10-02T03:55:36.064Z,8.80
2018-10-02T03:56:09.853Z,8.80
2018-10-02T03:56:43.809Z,8.80
2018-10-02T03:57:17.959Z,8.80
2018-10-02T03:57:51.916Z,8.80
2018-10-02T03:58:26.313Z,8.80
2018-10-02T03:59:01.309Z,8.80
2018-10-02T03:59:35.643Z,8.80
2018-10-02T04:00:09.666Z,8.90
2018-10-02T04:00:43.657Z,8.90
2018-10-02T04:01:18.406Z,8.80
2018-10-02T04:01:52.704Z,8.80
2018-10-02T04:02:26.818Z,8.90
2018-10-02T04:03:00.695Z,8.90
2018-10-02T04:03:34.803Z,8.80
2018-10-02T04:04:08.607Z,8.90
2018-10-02T04:04:42.664Z,8.90
2018-10-02T04:05:16.717Z,8.90
2018-10-02T04:05:51.258Z,8.90
2018-10-02T04:06:25.166Z,8.90
2018-10-02T04:06:58.966Z,8.90
2018-10-02T04:07:33.787Z,8.90
2018-10-02T04:08:07.616Z,8.80
2018-10-02T04:08:41.757Z,8.80
2018-10-02T04:09:17.488Z,8.80
2018-10-02T04:09:55.095Z,8.80
2018-10-02T04:10:30.003Z,8.80
2018-10-02T04:11:08.356Z,8.90
2018-10-02T04:11:43.691Z,8.90
2018-10-02T04:12:17.477Z,8.90
2018-10-02T04:12:51.456Z,8.90
2018-10-02T04:13:25.299Z,8.90
2018-10-02T04:13:59.112Z,8.80
2018-10-02T04:14:32.894Z,8.80
2018-10-02T04:15:07.302Z,8.90
2018-10-02T04:15:41.089Z,8.90
2018-10-02T04:16:15.011Z,8.90
2018-10-02T04:16:48.739Z,8.90
2018-10-02T04:17:22.951Z,8.90
2018-10-02T04:17:56.962Z,8.90
2018-10-02T04:18:31.057Z,8.90
2018-10-02T04:19:05.110Z,8.90
2018-10-02T04:19:39.041Z,8.90
2018-10-02T04:20:13.343Z,8.90
2018-10-02T04:20:47.320Z,8.90
2018-10-02T04:21:26.882Z,8.90
2018-10-02T04:22:00.871Z,8.90
2018-10-02T04:22:34.747Z,8.90
2018-10-02T04:23:08.488Z,8.90
2018-10-02T04:23:42.345Z,8.90
2018-10-02T04:24:16.199Z,8.90
2018-10-02T04:24:53.296Z,8.90
2018-10-02T04:25:27.411Z,8.90
2018-10-02T04:26:01.526Z,8.90
2018-10-02T04:26:36.462Z,8.90
2018-10-02T04:27:10.115Z,8.90
2018-10-02T04:27:44.004Z,8.90
2018-10-02T04:28:18.033Z,8.90
2018-10-02T04:28:52.139Z,8.90
2018-10-02T04:29:26.150Z,8.90
2018-10-02T04:29:59.863Z,9.00
2018-10-02T04:30:34.006Z,8.90
2018-10-02T04:31:07.871Z,8.90
2018-10-02T04:31:41.829Z,8.90
2018-10-02T04:32:15.540Z,8.90
2018-10-02T04:32:49.599Z,8.90
2018-10-02T04:33:23.937Z,8.90
2018-10-02T04:33:58.037Z,8.90
2018-10-02T04:34:31.859Z,9.00
2018-10-02T04:35:06.335Z,9.00
2018-10-02T04:35:40.101Z,9.00
2018-10-02T04:36:14.067Z,9.00
2018-10-02T04:36:48.032Z,9.00
2018-10-02T04:37:22.039Z,9.00
2018-10-02T04:37:56.229Z,9.00
2018-10-02T04:38:30.542Z,9.00
2018-10-02T04:39:07.161Z,9.00
2018-10-02T04:39:40.908Z,9.00
2018-10-02T04:40:14.896Z,9.00
2018-10-02T04:40:49.104Z,9.00
2018-10-02T04:41:22.956Z,9.00
2018-10-02T04:41:56.800Z,9.00
2018-10-02T04:42:31.270Z,9.00
2018-10-02T04:43:05.176Z,9.00
2018-10-02T04:43:39.091Z,9.00
2018-10-02T04:44:12.949Z,9.00
2018-10-02T04:44:46.834Z,9.00
2018-10-02T04:45:20.672Z,9.00
2018-10-02T04:45:54.747Z,9.00
2018-10-02T04:46:29.144Z,9.00
2018-10-02T04:47:03.371Z,9.00
2018-10-02T04:47:37.568Z,9.00
2018-10-02T04:48:11.808Z,9.00
2018-10-02T04:48:46.176Z,9.00
2018-10-02T04:49:20.125Z,9.00
2018-10-02T04:49:54.076Z,9.00
2018-10-02T04:50:28.118Z,9.00
2018-10-02T04:51:02.092Z,9.00
2018-10-02T04:51:36.647Z,9.00
2018-10-02T04:52:10.973Z,9.00
2018-10-02T04:52:44.846Z,9.00
2018-10-02T04:53:18.727Z,9.00
2018-10-02T04:53:52.744Z,9.00
2018-10-02T04:54:27.281Z,9.00
2018-10-02T04:55:02.157Z,9.00
2018-10-02T04:55:36.262Z,9.00
2018-10-02T04:56:10.363Z,9.10
2018-10-02T04:56:44.473Z,9.10
2018-10-02T04:57:18.711Z,9.10
2018-10-02T04:57:52.503Z,9.10
2018-10-02T04:58:26.552Z,9.10
2018-10-02T04:59:00.972Z,9.10
2018-10-02T04:59:35.031Z,9.10
2018-10-02T05:00:08.943Z,9.10
2018-10-02T05:00:42.997Z,9.10
2018-10-02T05:01:17.291Z,9.10
2018-10-02T05:01:51.759Z,9.10
2018-10-02T05:02:25.446Z,9.10
2018-10-02T05:02:59.447Z,9.10
2018-10-02T05:03:34.405Z,9.10
2018-10-02T05:04:08.793Z,9.10
2018-10-02T05:04:43.052Z,9.10
2018-10-02T05:05:17.718Z,9.10
2018-10-02T05:05:51.976Z,9.10
2018-10-02T05:06:26.027Z,9.10
2018-10-02T05:07:01.028Z,9.10
2018-10-02T05:07:36.999Z,9.10
2018-10-02T05:08:14.545Z,9.10
2018-10-02T05:08:48.803Z,9.20
2018-10-02T05:09:22.914Z,9.10
2018-10-02T05:09:57.949Z,9.20
2018-10-02T05:10:35.075Z,9.20
2018-10-02T05:11:10.484Z,9.20
2018-10-02T05:11:44.547Z,9.20
2018-10-02T05:12:18.581Z,9.20
2018-10-02T05:12:52.627Z,9.20
2018-10-02T05:13:26.517Z,9.20
2018-10-02T05:14:00.891Z,9.20
2018-10-02T05:14:34.850Z,9.20
2018-10-02T05:15:08.777Z,9.20
2018-10-02T05:15:43.204Z,9.20
2018-10-02T05:16:17.715Z,9.20
2018-10-02T05:16:53.019Z,9.20
2018-10-02T05:17:27.551Z,9.20
2018-10-02T05:18:02.502Z,9.20
2018-10-02T05:18:36.797Z,9.20
2018-10-02T05:19:11.456Z,9.20
2018-10-02T05:19:45.421Z,9.20
2018-10-02T05:20:19.360Z,9.20
2018-10-02T05:20:53.765Z,9.20
2018-10-02T05:21:27.645Z,9.20
2018-10-02T05:22:01.614Z,9.20
2018-10-02T05:22:36.372Z,9.20
2018-10-02T05:23:10.130Z,9.20
2018-10-02T05:23:44.352Z,9.20
2018-10-02T05:24:18.832Z,9.20
2018-10-02T05:24:52.620Z,9.30
2018-10-02T05:25:26.621Z,9.30
2018-10-02T05:26:02.216Z,9.30
2018-10-02T05:26:36.568Z,9.30
2018-10-02T05:27:10.679Z,9.30
2018-10-02T05:27:44.628Z,9.30
2018-10-02T05:28:18.301Z,9.30
2018-10-02T05:28:52.434Z,9.30
2018-10-02T05:29:26.291Z,9.30
2018-10-02T05:30:00.033Z,9.30
2018-10-02T05:30:35.091Z,9.30
2018-10-02T05:31:09.097Z,9.30
2018-10-02T05:31:43.078Z,9.30
2018-10-02T05:32:17.768Z,9.30
2018-10-02T05:32:52.515Z,9.30
2018-10-02T05:33:26.654Z,9.30
2018-10-02T05:34:00.634Z,9.30
2018-10-02T05:34:35.901Z,9.30
2018-10-02T05:35:10.411Z,9.30
2018-10-02T05:35:44.463Z,9.30
2018-10-02T05:36:19.164Z,9.30
2018-10-02T05:36:52.976Z,9.30
2018-10-02T05:37:27.058Z,9.30
2018-10-02T05:38:00.968Z,9.30
2018-10-02T05:38:35.266Z,9.30
2018-10-02T05:39:09.449Z,9.30
2018-10-02T05:39:44.061Z,9.30
2018-10-02T05:40:18.590Z,9.30
2018-10-02T05:40:52.658Z,9.30
2018-10-02T05:41:26.557Z,9.30
2018-10-02T05:42:00.552Z,9.30
2018-10-02T05:42:35.086Z,9.40
2018-10-02T05:43:10.436Z,9.30
2018-10-02T05:43:44.132Z,9.40
2018-10-02T05:44:18.110Z,9.40
2018-10-02T05:44:51.944Z,9.30
2018-10-02T05:45:26.013Z,9.40
2018-10-02T05:46:00.501Z,9.30
2018-10-02T05:46:36.206Z,9.40
2018-10-02T05:47:10.220Z,9.40
2018-10-02T05:47:44.487Z,9.40
2018-10-02T05:48:21.852Z,9.40
2018-10-02T05:48:55.480Z,9.40
2018-10-02T05:49:29.540Z,9.40
2018-10-02T05:50:03.471Z,9.40
2018-10-02T05:50:38.214Z,9.40
2018-10-02T05:51:13.228Z,9.40
2018-10-02T05:51:47.130Z,9.40
2018-10-02T05:52:21.239Z,9.40
2018-10-02T05:52:55.030Z,9.40
2018-10-02T05:53:30.291Z,9.40
2018-10-02T05:54:11.148Z,9.40
2018-10-02T05:54:45.337Z,9.40
2018-10-02T05:55:19.389Z,9.40
2018-10-02T05:55:53.232Z,9.40
2018-10-02T05:56:27.088Z,9.40
2018-10-02T05:57:01.227Z,9.40
2018-10-02T05:57:38.385Z,9.40
2018-10-02T05:58:12.593Z,9.50
2018-10-02T05:58:46.548Z,9.50
2018-10-02T05:59:20.594Z,9.40
2018-10-02T05:59:54.454Z,9.50
2018-10-02T06:00:28.178Z,9.50
2018-10-02T06:01:02.460Z,9.50
2018-10-02T06:01:36.463Z,9.50
2018-10-02T06:02:10.512Z,9.50
2018-10-02T06:02:44.604Z,9.50
2018-10-02T06:03:18.745Z,9.50
2018-10-02T06:03:52.541Z,9.50
2018-10-02T06:04:26.517Z,9.50
2018-10-02T06:05:00.581Z,9.50
2018-10-02T06:05:34.407Z,9.50
2018-10-02T06:06:09.237Z,9.50
2018-10-02T06:06:44.961Z,9.50
2018-10-02T06:07:18.888Z,9.50
2018-10-02T06:07:53.030Z,9.50
2018-10-02T06:08:26.822Z,9.50
2018-10-02T06:09:00.726Z,9.50
2018-10-02T06:09:34.641Z,9.50
2018-10-02T06:10:10.288Z,9.50
2018-10-02T06:10:44.778Z,9.50
2018-10-02T06:11:18.921Z,9.50
2018-10-02T06:11:52.994Z,9.50
2018-10-02T06:12:27.089Z,9.60
2018-10-02T06:13:01.001Z,9.50
2018-10-02T06:13:34.915Z,9.60
2018-10-02T06:14:10.107Z,9.50
2018-10-02T06:14:44.088Z,9.60
2018-10-02T06:15:17.958Z,9.50
2018-10-02T06:15:53.212Z,9.60
2018-10-02T06:16:27.049Z,9.60
2018-10-02T06:17:01.050Z,9.60
2018-10-02T06:17:34.749Z,9.60
2018-10-02T06:18:08.530Z,9.60
2018-10-02T06:18:43.348Z,9.60
2018-10-02T06:19:17.191Z,9.60
2018-10-02T06:19:51.110Z,9.60
2018-10-02T06:20:24.993Z,9.60
2018-10-02T06:20:58.749Z,9.50
2018-10-02T06:21:32.987Z,9.60
2018-10-02T06:22:07.479Z,9.60
2018-10-02T06:22:41.457Z,9.60
2018-10-02T06:23:17.818Z,9.60
2018-10-02T06:23:51.834Z,9.50
2018-10-02T06:24:25.639Z,9.50
2018-10-02T06:24:59.636Z,9.60
2018-10-02T06:25:33.393Z,9.60
2018-10-02T06:26:07.583Z,9.50
2018-10-02T06:26:41.536Z,9.60
2018-10-02T06:27:15.725Z,9.50
2018-10-02T06:27:49.504Z,9.60
2018-10-02T06:28:23.470Z,9.60
2018-10-02T06:28:57.377Z,9.60
2018-10-02T06:29:31.769Z,9.60
2018-10-02T06:30:05.807Z,9.50
2018-10-02T06:30:39.592Z,9.50
2018-10-02T06:31:13.816Z,9.50
2018-10-02T06:31:48.142Z,9.50
2018-10-02T06:32:22.288Z,9.50
2018-10-02T06:32:56.001Z,9.50
2018-10-02T06:33:29.693Z,9.50
2018-10-02T06:34:03.697Z,9.50
2018-10-02T06:34:37.580Z,9.50
2018-10-02T06:35:11.454Z,9.50
2018-10-02T06:35:45.779Z,9.50
2018-10-02T06:36:19.607Z,9.50
2018-10-02T06:36:56.833Z,9.40
2018-10-02T06:37:30.493Z,9.40
2018-10-02T06:38:04.681Z,9.40
2018-10-02T06:38:38.856Z,9.30
2018-10-02T06:39:12.686Z,9.30
2018-10-02T06:39:46.917Z,9.40
2018-10-02T06:40:21.008Z,9.40
2018-10-02T06:40:55.260Z,9.40
2018-10-02T06:41:29.131Z,9.40
2018-10-02T06:42:03.281Z,9.40
2018-10-02T06:42:37.320Z,9.40
2018-10-02T06:43:11.209Z,9.40
2018-10-02T06:43:46.029Z,9.40
2018-10-02T06:44:22.996Z,9.40
2018-10-02T06:44:56.932Z,9.40
2018-10-02T06:45:30.724Z,9.40
2018-10-02T06:46:04.573Z,9.30
2018-10-02T06:46:38.531Z,9.30
2018-10-02T06:47:12.485Z,9.40
2018-10-02T06:47:46.952Z,9.30
2018-10-02T06:48:20.996Z,9.30
2018-10-02T06:48:55.090Z,9.40
2018-10-02T06:49:29.005Z,9.40
2018-10-02T06:50:03.171Z,9.40
2018-10-02T06:50:36.987Z,9.40
2018-10-02T06:51:11.050Z,9.40
2018-10-02T06:51:44.889Z,9.40
2018-10-02T06:52:19.033Z,9.40
2018-10-02T06:52:53.228Z,9.40
2018-10-02T06:53:27.052Z,9.40
2018-10-02T06:54:01.035Z,9.40
2018-10-02T06:54:35.193Z,9.40
2018-10-02T06:55:09.450Z,9.40
2018-10-02T06:55:43.238Z,9.40
2018-10-02T06:56:17.246Z,9.40
2018-10-02T06:56:51.315Z,9.40
2018-10-02T06:57:25.302Z,9.40
2018-10-02T06:57:59.384Z,9.40
2018-10-02T06:58:33.175Z,9.40
2018-10-02T06:59:07.044Z,9.40
2018-10-02T06:59:41.080Z,9.40
2018-10-02T07:00:15.043Z,9.50
2018-10-02T07:00:49.542Z,9.50
2018-10-02T07:01:23.700Z,9.50
2018-10-02T07:01:57.524Z,9.50
2018-10-02T07:02:31.526Z,9.50
2018-10-02T07:03:05.657Z,9.50
2018-10-02T07:03:39.561Z,9.50
2018-10-02T07:04:13.408Z,9.50
2018-10-02T07:04:49.177Z,9.50
2018-10-02T07:05:23.248Z,9.50
2018-10-02T07:05:57.339Z,9.50
2018-10-02T07:06:31.131Z,9.50
2018-10-02T07:07:05.075Z,9.50
2018-10-02T07:07:39.023Z,9.50
2018-10-02T07:08:12.719Z,9.50
2018-10-02T07:08:46.738Z,9.50
2018-10-02T07:09:21.669Z,9.50
2018-10-02T07:09:56.204Z,9.50
2018-10-02T07:10:30.188Z,9.50
2018-10-02T07:11:04.241Z,9.50
2018-10-02T07:11:39.159Z,9.50
2018-10-02T07:12:13.003Z,9.50
2018-10-02T07:12:46.773Z,9.50
2018-10-02T07:13:21.063Z,9.50
2018-10-02T07:13:55.368Z,9.50
2018-10-02T07:14:29.460Z,9.50
2018-10-02T07:15:03.475Z,9.50
2018-10-02T07:15:40.507Z,9.60
2018-10-02T07:16:14.575Z,9.60
2018-10-02T07:16:48.648Z,9.60
2018-10-02T07:17:22.904Z,9.50
2018-10-02T07:17:56.876Z,9.60
2018-10-02T07:18:30.803Z,9.60
2018-10-02T07:19:05.045Z,9.60
2018-10-02T07:19:39.106Z,9.50
2018-10-02T07:20:13.144Z,9.50
2018-10-02T07:20:46.847Z,9.60
2018-10-02T07:21:20.970Z,9.50
2018-10-02T07:21:55.047Z,9.50
2018-10-02T07:22:29.109Z,9.50
2018-10-02T07:23:02.941Z,9.50
2018-10-02T07:23:37.283Z,9.50
2018-10-02T07:24:11.159Z,9.50
2018-10-02T07:24:44.991Z,9.50
2018-10-02T07:25:19.162Z,9.60
2018-10-02T07:25:53.714Z,9.60
2018-10-02T07:26:27.894Z,9.50
2018-10-02T07:27:01.908Z,9.60
2018-10-02T07:27:36.161Z,9.60
2018-10-02T07:28:09.812Z,9.60
2018-10-02T07:28:43.781Z,9.60
2018-10-02T07:29:17.665Z,9.60
2018-10-02T07:29:52.039Z,9.60
2018-10-02T07:30:26.494Z,9.60
2018-10-02T07:31:00.573Z,9.60
2018-10-02T07:31:34.584Z,9.60
2018-10-02T07:32:08.270Z,9.60
2018-10-02T07:32:42.472Z,9.70
2018-10-02T07:33:16.304Z,9.60
2018-10-02T07:33:50.829Z,9.60
2018-10-02T07:34:24.790Z,9.70
2018-10-02T07:34:58.869Z,9.60
2018-10-02T07:35:32.881Z,9.70
2018-10-02T07:36:07.007Z,9.70